VIB weather

CLOSED Villa Constitución Airport
Ciudad Constitución, Baja California Sur, Mexico

Public forecast

Using degrees Celsius for public forecast. Weather courtesy of forecast.io.

Closest aviation weather report (METAR) to Villa Constitución Airport

Report is more than 2 hours old.

Closest report is Loreto International Airport, 59.0 nm (109.3 km) NNE. Retrieved 2020/07/13 00:51 UTC (3 hours ago):

MMLT 130051Z 15010KT 10SM FEW070 FEW200 37/25 A2972 RMK 8/505

Closest aviation forecast (TAF) to Villa Constitución Airport

Forecast is more than 6 hours old.

Closest forecast is Loreto International Airport, 59.0 nm (109.3 km) NNE. Retrieved 2020/07/12 18:10 UTC (10 hours ago):

TAF MMLT 121704Z 1218/1318 02012KT P6SM SKC FM130600 09010KT P6SM SKC